sensor_id;sensor_type;location;lat;lon;timestamp;temperature;humidity
18712;DHT22;9485;49.386;8.674;2023-08-24T00:00:06;25.50;48.20
18712;DHT22;9485;49.386;8.674;2023-08-24T00:05:28;25.50;48.50
18712;DHT22;9485;49.386;8.674;2023-08-24T00:10:49;25.50;48.20
18712;DHT22;9485;49.386;8.674;2023-08-24T00:16:12;25.50;48.40
18712;DHT22;9485;49.386;8.674;2023-08-24T00:21:33;25.40;48.40
18712;DHT22;9485;49.386;8.674;2023-08-24T00:26:53;25.40;48.40
18712;DHT22;9485;49.386;8.674;2023-08-24T00:32:15;25.40;48.60
18712;DHT22;9485;49.386;8.674;2023-08-24T00:37:37;25.30;48.80
18712;DHT22;9485;49.386;8.674;2023-08-24T00:42:58;25.30;48.80
18712;DHT22;9485;49.386;8.674;2023-08-24T00:48:25;25.20;49.00
18712;DHT22;9485;49.386;8.674;2023-08-24T00:53:48;25.20;49.30
18712;DHT22;9485;49.386;8.674;2023-08-24T00:59:10;25.20;49.20
18712;DHT22;9485;49.386;8.674;2023-08-24T01:04:32;25.20;49.30
18712;DHT22;9485;49.386;8.674;2023-08-24T01:09:56;25.20;49.60
18712;DHT22;9485;49.386;8.674;2023-08-24T01:15:22;25.20;49.40
18712;DHT22;9485;49.386;8.674;2023-08-24T01:20:51;25.20;49.90
18712;DHT22;9485;49.386;8.674;2023-08-24T01:26:17;25.10;49.70
18712;DHT22;9485;49.386;8.674;2023-08-24T01:31:38;25.10;49.90
18712;DHT22;9485;49.386;8.674;2023-08-24T01:36:59;25.00;49.70
18712;DHT22;9485;49.386;8.674;2023-08-24T01:42:26;25.00;49.80
18712;DHT22;9485;49.386;8.674;2023-08-24T01:47:52;24.90;50.10
18712;DHT22;9485;49.386;8.674;2023-08-24T01:53:15;24.90;50.00
18712;DHT22;9485;49.386;8.674;2023-08-24T01:58:37;24.80;50.00
18712;DHT22;9485;49.386;8.674;2023-08-24T02:03:59;24.80;50.30
18712;DHT22;9485;49.386;8.674;2023-08-24T02:09:20;24.80;50.30
18712;DHT22;9485;49.386;8.674;2023-08-24T02:14:47;24.80;51.10
18712;DHT22;9485;49.386;8.674;2023-08-24T02:20:10;24.70;50.80
18712;DHT22;9485;49.386;8.674;2023-08-24T02:25:31;24.70;50.80
18712;DHT22;9485;49.386;8.674;2023-08-24T02:30:53;24.70;51.10
18712;DHT22;9485;49.386;8.674;2023-08-24T02:36:14;24.60;51.30
18712;DHT22;9485;49.386;8.674;2023-08-24T02:41:35;24.60;51.10
18712;DHT22;9485;49.386;8.674;2023-08-24T02:46:58;24.60;51.30
18712;DHT22;9485;49.386;8.674;2023-08-24T02:52:19;24.60;51.40
18712;DHT22;9485;49.386;8.674;2023-08-24T02:57:40;24.60;51.30
18712;DHT22;9485;49.386;8.674;2023-08-24T03:03:01;24.60;51.50
18712;DHT22;9485;49.386;8.674;2023-08-24T03:08:27;24.60;51.50
18712;DHT22;9485;49.386;8.674;2023-08-24T03:13:49;24.60;51.70
18712;DHT22;9485;49.386;8.674;2023-08-24T03:19:11;24.60;51.80
18712;DHT22;9485;49.386;8.674;2023-08-24T03:24:34;24.60;52.00
18712;DHT22;9485;49.386;8.674;2023-08-24T03:29:55;24.60;51.90
18712;DHT22;9485;49.386;8.674;2023-08-24T03:35:19;24.60;52.10
18712;DHT22;9485;49.386;8.674;2023-08-24T03:40:40;24.50;52.10
18712;DHT22;9485;49.386;8.674;2023-08-24T03:46:01;24.50;52.30
18712;DHT22;9485;49.386;8.674;2023-08-24T03:51:24;24.50;52.00
18712;DHT22;9485;49.386;8.674;2023-08-24T03:56:45;24.50;52.30
18712;DHT22;9485;49.386;8.674;2023-08-24T04:02:06;24.60;52.00
18712;DHT22;9485;49.386;8.674;2023-08-24T04:07:28;24.70;51.50
18712;DHT22;9485;49.386;8.674;2023-08-24T04:12:50;24.80;51.20
18712;DHT22;9485;49.386;8.674;2023-08-24T04:18:13;25.10;51.10
18712;DHT22;9485;49.386;8.674;2023-08-24T04:23:37;25.50;50.90
18712;DHT22;9485;49.386;8.674;2023-08-24T04:28:58;25.80;50.70
18712;DHT22;9485;49.386;8.674;2023-08-24T04:34:20;26.10;50.40
18712;DHT22;9485;49.386;8.674;2023-08-24T04:39:42;26.20;49.90
18712;DHT22;9485;49.386;8.674;2023-08-24T04:45:03;26.30;49.50
18712;DHT22;9485;49.386;8.674;2023-08-24T04:50:24;26.30;49.40
18712;DHT22;9485;49.386;8.674;2023-08-24T04:55:48;26.20;49.30
18712;DHT22;9485;49.386;8.674;2023-08-24T05:01:08;26.20;49.30
18712;DHT22;9485;49.386;8.674;2023-08-24T05:06:29;26.20;49.20
18712;DHT22;9485;49.386;8.674;2023-08-24T05:11:51;26.30;49.70
18712;DHT22;9485;49.386;8.674;2023-08-24T05:17:12;26.40;49.90
18712;DHT22;9485;49.386;8.674;2023-08-24T05:22:33;26.40;49.00
18712;DHT22;9485;49.386;8.674;2023-08-24T05:27:55;26.30;49.60
18712;DHT22;9485;49.386;8.674;2023-08-24T05:33:16;26.30;49.50
18712;DHT22;9485;49.386;8.674;2023-08-24T05:38:36;26.30;49.60
18712;DHT22;9485;49.386;8.674;2023-08-24T05:43:58;26.30;49.90
18712;DHT22;9485;49.386;8.674;2023-08-24T05:49:21;26.30;49.90
18712;DHT22;9485;49.386;8.674;2023-08-24T05:54:41;26.40;49.90
18712;DHT22;9485;49.386;8.674;2023-08-24T06:00:04;26.30;49.80
18712;DHT22;9485;49.386;8.674;2023-08-24T06:05:32;26.20;50.60
18712;DHT22;9485;49.386;8.674;2023-08-24T06:10:52;26.10;50.30
18712;DHT22;9485;49.386;8.674;2023-08-24T06:16:16;26.00;50.50
18712;DHT22;9485;49.386;8.674;2023-08-24T06:21:37;26.00;50.90
18712;DHT22;9485;49.386;8.674;2023-08-24T06:26:58;26.00;51.00
18712;DHT22;9485;49.386;8.674;2023-08-24T06:32:21;26.00;51.20
18712;DHT22;9485;49.386;8.674;2023-08-24T06:37:42;26.00;51.30
18712;DHT22;9485;49.386;8.674;2023-08-24T06:43:03;26.10;51.30
18712;DHT22;9485;49.386;8.674;2023-08-24T06:48:25;26.20;51.30
18712;DHT22;9485;49.386;8.674;2023-08-24T06:53:46;26.20;51.60
18712;DHT22;9485;49.386;8.674;2023-08-24T06:59:08;26.30;51.60
18712;DHT22;9485;49.386;8.674;2023-08-24T07:04:30;26.30;51.60
18712;DHT22;9485;49.386;8.674;2023-08-24T07:09:53;26.40;52.00
18712;DHT22;9485;49.386;8.674;2023-08-24T07:15:14;26.50;52.00
18712;DHT22;9485;49.386;8.674;2023-08-24T07:20:37;26.50;51.70
18712;DHT22;9485;49.386;8.674;2023-08-24T07:25:58;26.60;52.20
18712;DHT22;9485;49.386;8.674;2023-08-24T07:31:18;26.90;52.30
18712;DHT22;9485;49.386;8.674;2023-08-24T07:36:40;27.30;54.00
18712;DHT22;9485;49.386;8.674;2023-08-24T07:42:02;28.00;53.30
18712;DHT22;9485;49.386;8.674;2023-08-24T07:47:23;28.80;53.10
18712;DHT22;9485;49.386;8.674;2023-08-24T07:52:45;29.50;52.20
18712;DHT22;9485;49.386;8.674;2023-08-24T07:58:07;30.00;51.00
18712;DHT22;9485;49.386;8.674;2023-08-24T08:03:27;30.20;50.00
18712;DHT22;9485;49.386;8.674;2023-08-24T08:08:51;30.10;49.50
18712;DHT22;9485;49.386;8.674;2023-08-24T08:14:12;30.00;49.60
18712;DHT22;9485;49.386;8.674;2023-08-24T08:19:33;30.00;50.00
18712;DHT22;9485;49.386;8.674;2023-08-24T08:24:56;30.20;50.20
18712;DHT22;9485;49.386;8.674;2023-08-24T08:30:19;30.40;50.50
18712;DHT22;9485;49.386;8.674;2023-08-24T08:35:41;31.00;51.50
18712;DHT22;9485;49.386;8.674;2023-08-24T08:41:04;31.90;51.10
18712;DHT22;9485;49.386;8.674;2023-08-24T08:46:25;32.90;50.20
18712;DHT22;9485;49.386;8.674;2023-08-24T08:51:47;34.10;50.30
18712;DHT22;9485;49.386;8.674;2023-08-24T08:57:13;35.20;49.30
18712;DHT22;9485;49.386;8.674;2023-08-24T09:02:36;36.40;46.80
18712;DHT22;9485;49.386;8.674;2023-08-24T09:07:58;37.30;45.30
18712;DHT22;9485;49.386;8.674;2023-08-24T09:13:23;37.60;43.80
18712;DHT22;9485;49.386;8.674;2023-08-24T09:18:45;37.90;43.00
18712;DHT22;9485;49.386;8.674;2023-08-24T09:24:08;38.20;42.10
18712;DHT22;9485;49.386;8.674;2023-08-24T09:29:36;38.50;42.00
18712;DHT22;9485;49.386;8.674;2023-08-24T09:35:02;39.00;40.60
18712;DHT22;9485;49.386;8.674;2023-08-24T09:40:26;39.50;39.60
18712;DHT22;9485;49.386;8.674;2023-08-24T09:45:51;39.70;39.60
18712;DHT22;9485;49.386;8.674;2023-08-24T09:51:13;39.90;38.20
18712;DHT22;9485;49.386;8.674;2023-08-24T09:56:36;40.10;38.70
18712;DHT22;9485;49.386;8.674;2023-08-24T10:02:00;40.30;38.10
18712;DHT22;9485;49.386;8.674;2023-08-24T10:07:24;40.40;37.40
18712;DHT22;9485;49.386;8.674;2023-08-24T10:12:50;40.50;38.00
18712;DHT22;9485;49.386;8.674;2023-08-24T10:18:15;40.50;37.10
18712;DHT22;9485;49.386;8.674;2023-08-24T10:23:37;40.50;36.70
18712;DHT22;9485;49.386;8.674;2023-08-24T10:29:00;40.40;36.10
18712;DHT22;9485;49.386;8.674;2023-08-24T10:34:22;40.00;35.80
18712;DHT22;9485;49.386;8.674;2023-08-24T10:39:44;39.60;36.50
18712;DHT22;9485;49.386;8.674;2023-08-24T10:45:07;39.50;36.90
18712;DHT22;9485;49.386;8.674;2023-08-24T10:50:30;39.40;36.30
18712;DHT22;9485;49.386;8.674;2023-08-24T10:56:10;39.30;37.00
18712;DHT22;9485;49.386;8.674;2023-08-24T11:01:32;39.40;36.20
18712;DHT22;9485;49.386;8.674;2023-08-24T11:06:56;39.60;36.40
18712;DHT22;9485;49.386;8.674;2023-08-24T11:12:18;39.70;36.20
18712;DHT22;9485;49.386;8.674;2023-08-24T11:17:39;39.70;35.90
18712;DHT22;9485;49.386;8.674;2023-08-24T11:23:01;39.80;36.40
18712;DHT22;9485;49.386;8.674;2023-08-24T11:28:25;39.80;36.30
18712;DHT22;9485;49.386;8.674;2023-08-24T11:33:47;39.80;36.30
18712;DHT22;9485;49.386;8.674;2023-08-24T11:39:14;40.00;36.20
18712;DHT22;9485;49.386;8.674;2023-08-24T11:44:45;40.10;34.70
18712;DHT22;9485;49.386;8.674;2023-08-24T11:50:08;40.00;35.70
18712;DHT22;9485;49.386;8.674;2023-08-24T11:55:31;39.80;35.30
18712;DHT22;9485;49.386;8.674;2023-08-24T12:00:52;39.60;36.10
18712;DHT22;9485;49.386;8.674;2023-08-24T12:06:14;39.30;36.60
18712;DHT22;9485;49.386;8.674;2023-08-24T12:11:37;39.10;36.80
18712;DHT22;9485;49.386;8.674;2023-08-24T12:16:58;38.90;37.10
18712;DHT22;9485;49.386;8.674;2023-08-24T12:22:26;38.60;37.10
18712;DHT22;9485;49.386;8.674;2023-08-24T12:27:51;38.50;37.50
18712;DHT22;9485;49.386;8.674;2023-08-24T12:33:23;38.50;37.60
18712;DHT22;9485;49.386;8.674;2023-08-24T12:38:44;38.50;38.30
18712;DHT22;9485;49.386;8.674;2023-08-24T12:44:08;38.60;38.10
18712;DHT22;9485;49.386;8.674;2023-08-24T12:49:29;38.70;38.30
18712;DHT22;9485;49.386;8.674;2023-08-24T12:54:49;38.90;37.80
18712;DHT22;9485;49.386;8.674;2023-08-24T13:00:15;38.90;38.10
18712;DHT22;9485;49.386;8.674;2023-08-24T13:05:37;39.00;39.00
18712;DHT22;9485;49.386;8.674;2023-08-24T13:10:57;39.00;38.40
18712;DHT22;9485;49.386;8.674;2023-08-24T13:16:20;38.90;37.80
18712;DHT22;9485;49.386;8.674;2023-08-24T13:21:41;38.80;37.50
18712;DHT22;9485;49.386;8.674;2023-08-24T13:27:02;38.60;37.50
18712;DHT22;9485;49.386;8.674;2023-08-24T13:32:25;38.60;37.80
18712;DHT22;9485;49.386;8.674;2023-08-24T13:37:46;38.70;38.80
18712;DHT22;9485;49.386;8.674;2023-08-24T13:43:07;38.90;39.00
18712;DHT22;9485;49.386;8.674;2023-08-24T13:48:29;39.30;38.60
18712;DHT22;9485;49.386;8.674;2023-08-24T13:53:53;39.30;38.10
18712;DHT22;9485;49.386;8.674;2023-08-24T13:59:14;39.30;38.20
18712;DHT22;9485;49.386;8.674;2023-08-24T14:04:36;39.10;37.60
18712;DHT22;9485;49.386;8.674;2023-08-24T14:09:58;38.80;37.90
18712;DHT22;9485;49.386;8.674;2023-08-24T14:15:19;38.50;37.90
18712;DHT22;9485;49.386;8.674;2023-08-24T14:20:44;38.10;37.90
18712;DHT22;9485;49.386;8.674;2023-08-24T14:26:05;37.70;38.00
18712;DHT22;9485;49.386;8.674;2023-08-24T14:31:27;37.20;38.60
18712;DHT22;9485;49.386;8.674;2023-08-24T14:36:51;36.70;39.00
18712;DHT22;9485;49.386;8.674;2023-08-24T14:42:12;36.20;39.30
18712;DHT22;9485;49.386;8.674;2023-08-24T14:47:33;35.70;40.10
18712;DHT22;9485;49.386;8.674;2023-08-24T14:52:55;35.20;40.60
18712;DHT22;9485;49.386;8.674;2023-08-24T14:58:16;34.70;40.90
18712;DHT22;9485;49.386;8.674;2023-08-24T15:03:39;34.10;41.30
18712;DHT22;9485;49.386;8.674;2023-08-24T15:09:01;33.70;42.00
18712;DHT22;9485;49.386;8.674;2023-08-24T15:14:23;33.20;42.40
18712;DHT22;9485;49.386;8.674;2023-08-24T15:19:44;32.70;42.20
18712;DHT22;9485;49.386;8.674;2023-08-24T15:25:07;31.60;42.00
18712;DHT22;9485;49.386;8.674;2023-08-24T15:30:28;31.60;44.00
18712;DHT22;9485;49.386;8.674;2023-08-24T15:35:49;31.20;44.30
18712;DHT22;9485;49.386;8.674;2023-08-24T15:41:11;30.80;45.10
18712;DHT22;9485;49.386;8.674;2023-08-24T15:46:31;30.60;45.40
18712;DHT22;9485;49.386;8.674;2023-08-24T15:51:53;30.70;44.90
18712;DHT22;9485;49.386;8.674;2023-08-24T15:57:15;30.70;46.20
18712;DHT22;9485;49.386;8.674;2023-08-24T16:02:37;30.80;46.70
18712;DHT22;9485;49.386;8.674;2023-08-24T16:07:58;31.10;46.50
18712;DHT22;9485;49.386;8.674;2023-08-24T16:13:20;31.00;47.10
18712;DHT22;9485;49.386;8.674;2023-08-24T16:18:41;31.20;45.80
18712;DHT22;9485;49.386;8.674;2023-08-24T16:24:02;31.20;46.90
18712;DHT22;9485;49.386;8.674;2023-08-24T16:29:25;31.20;46.80
18712;DHT22;9485;49.386;8.674;2023-08-24T16:34:46;31.00;47.40
18712;DHT22;9485;49.386;8.674;2023-08-24T16:40:08;31.10;47.70
18712;DHT22;9485;49.386;8.674;2023-08-24T16:45:32;31.00;47.90
18712;DHT22;9485;49.386;8.674;2023-08-24T16:50:54;30.80;48.20
18712;DHT22;9485;49.386;8.674;2023-08-24T16:56:16;30.70;48.40
18712;DHT22;9485;49.386;8.674;2023-08-24T17:01:38;30.60;48.60
18712;DHT22;9485;49.386;8.674;2023-08-24T17:06:59;30.50;48.30
18712;DHT22;9485;49.386;8.674;2023-08-24T17:12:20;30.30;48.10
18712;DHT22;9485;49.386;8.674;2023-08-24T17:17:44;30.20;48.30
18712;DHT22;9485;49.386;8.674;2023-08-24T17:23:07;30.10;48.60
18712;DHT22;9485;49.386;8.674;2023-08-24T17:28:27;30.00;48.60
18712;DHT22;9485;49.386;8.674;2023-08-24T17:33:49;29.90;48.80
18712;DHT22;9485;49.386;8.674;2023-08-24T17:39:11;29.80;49.50
18712;DHT22;9485;49.386;8.674;2023-08-24T17:44:31;29.60;49.50
18712;DHT22;9485;49.386;8.674;2023-08-24T17:49:54;29.10;50.00
18712;DHT22;9485;49.386;8.674;2023-08-24T17:55:15;28.60;50.50
18712;DHT22;9485;49.386;8.674;2023-08-24T18:00:36;28.20;51.00
18712;DHT22;9485;49.386;8.674;2023-08-24T18:05:58;27.80;51.60
18712;DHT22;9485;49.386;8.674;2023-08-24T18:11:19;27.50;52.50
18712;DHT22;9485;49.386;8.674;2023-08-24T18:16:39;27.30;52.90
18712;DHT22;9485;49.386;8.674;2023-08-24T18:22:01;27.10;53.50
18712;DHT22;9485;49.386;8.674;2023-08-24T18:27:23;26.90;54.20
18712;DHT22;9485;49.386;8.674;2023-08-24T18:32:45;26.80;54.30
18712;DHT22;9485;49.386;8.674;2023-08-24T18:38:08;26.60;54.80
18712;DHT22;9485;49.386;8.674;2023-08-24T18:43:29;26.50;55.60
18712;DHT22;9485;49.386;8.674;2023-08-24T18:48:50;26.40;55.80
18712;DHT22;9485;49.386;8.674;2023-08-24T18:54:12;26.30;56.00
18712;DHT22;9485;49.386;8.674;2023-08-24T18:59:33;26.30;56.50
18712;DHT22;9485;49.386;8.674;2023-08-24T19:04:54;26.20;56.60
18712;DHT22;9485;49.386;8.674;2023-08-24T19:10:16;26.10;56.90
18712;DHT22;9485;49.386;8.674;2023-08-24T19:15:36;26.00;57.20
18712;DHT22;9485;49.386;8.674;2023-08-24T19:20:57;25.90;57.30
18712;DHT22;9485;49.386;8.674;2023-08-24T19:26:20;25.80;57.70
18712;DHT22;9485;49.386;8.674;2023-08-24T19:31:41;25.80;58.20
18712;DHT22;9485;49.386;8.674;2023-08-24T19:37:03;25.80;58.40
18712;DHT22;9485;49.386;8.674;2023-08-24T19:42:25;25.80;58.60
18712;DHT22;9485;49.386;8.674;2023-08-24T19:47:46;25.70;58.80
18712;DHT22;9485;49.386;8.674;2023-08-24T19:53:07;25.70;59.10
18712;DHT22;9485;49.386;8.674;2023-08-24T19:58:29;25.70;59.40
18712;DHT22;9485;49.386;8.674;2023-08-24T20:03:50;25.70;59.70
18712;DHT22;9485;49.386;8.674;2023-08-24T20:09:11;25.70;59.70
18712;DHT22;9485;49.386;8.674;2023-08-24T20:14:35;25.70;59.90
18712;DHT22;9485;49.386;8.674;2023-08-24T20:19:56;25.70;60.30
18712;DHT22;9485;49.386;8.674;2023-08-24T20:25:17;25.70;60.40
18712;DHT22;9485;49.386;8.674;2023-08-24T20:30:40;25.70;60.70
18712;DHT22;9485;49.386;8.674;2023-08-24T20:36:01;25.70;61.00
18712;DHT22;9485;49.386;8.674;2023-08-24T20:41:23;25.70;61.00
18712;DHT22;9485;49.386;8.674;2023-08-24T20:46:45;25.70;61.20
18712;DHT22;9485;49.386;8.674;2023-08-24T20:52:06;25.70;61.60
18712;DHT22;9485;49.386;8.674;2023-08-24T20:57:27;25.70;61.60
18712;DHT22;9485;49.386;8.674;2023-08-24T21:02:49;25.70;61.70
18712;DHT22;9485;49.386;8.674;2023-08-24T21:08:10;25.60;62.00
18712;DHT22;9485;49.386;8.674;2023-08-24T21:13:31;25.50;61.90
18712;DHT22;9485;49.386;8.674;2023-08-24T21:18:53;25.50;62.10
18712;DHT22;9485;49.386;8.674;2023-08-24T21:24:13;25.50;62.60
18712;DHT22;9485;49.386;8.674;2023-08-24T21:29:34;25.50;62.50
18712;DHT22;9485;49.386;8.674;2023-08-24T21:35:00;25.50;62.50
18712;DHT22;9485;49.386;8.674;2023-08-24T21:40:22;25.50;62.80
18712;DHT22;9485;49.386;8.674;2023-08-24T21:45:44;25.50;62.80
18712;DHT22;9485;49.386;8.674;2023-08-24T21:51:06;25.40;62.90
18712;DHT22;9485;49.386;8.674;2023-08-24T21:56:27;25.40;63.30
18712;DHT22;9485;49.386;8.674;2023-08-24T22:01:48;25.40;63.30
18712;DHT22;9485;49.386;8.674;2023-08-24T22:07:11;25.40;63.50
18712;DHT22;9485;49.386;8.674;2023-08-24T22:12:33;25.40;63.90
18712;DHT22;9485;49.386;8.674;2023-08-24T22:17:54;25.30;63.80
18712;DHT22;9485;49.386;8.674;2023-08-24T22:23:16;25.30;64.00
18712;DHT22;9485;49.386;8.674;2023-08-24T22:28:38;25.30;64.20
18712;DHT22;9485;49.386;8.674;2023-08-24T22:33:59;25.30;64.10
18712;DHT22;9485;49.386;8.674;2023-08-24T22:39:22;25.30;64.20
18712;DHT22;9485;49.386;8.674;2023-08-24T22:44:42;25.30;64.50
18712;DHT22;9485;49.386;8.674;2023-08-24T22:50:05;25.20;64.30
18712;DHT22;9485;49.386;8.674;2023-08-24T22:55:28;25.20;64.60
18712;DHT22;9485;49.386;8.674;2023-08-24T23:00:49;25.20;64.70
18712;DHT22;9485;49.386;8.674;2023-08-24T23:06:12;25.10;64.60
18712;DHT22;9485;49.386;8.674;2023-08-24T23:11:35;25.10;65.10
18712;DHT22;9485;49.386;8.674;2023-08-24T23:16:55;25.00;65.00
18712;DHT22;9485;49.386;8.674;2023-08-24T23:22:16;25.00;65.00
18712;DHT22;9485;49.386;8.674;2023-08-24T23:27:39;25.00;65.20
18712;DHT22;9485;49.386;8.674;2023-08-24T23:32:59;25.00;65.60
18712;DHT22;9485;49.386;8.674;2023-08-24T23:38:20;25.00;65.50
18712;DHT22;9485;49.386;8.674;2023-08-24T23:43:44;25.00;65.60
18712;DHT22;9485;49.386;8.674;2023-08-24T23:49:06;25.00;65.80
18712;DHT22;9485;49.386;8.674;2023-08-24T23:54:28;25.00;65.80
18712;DHT22;9485;49.386;8.674;2023-08-24T23:59:50;25.00;65.80
